createdAt,value
2023-05-21T04:33:48.809Z,100242.37
2023-05-21T04:36:16.761Z,100243.25
2023-05-21T04:38:44.429Z,100246.60
2023-05-21T05:18:08.328Z,100215.30
2023-05-21T05:20:36.105Z,100209.94
2023-05-21T05:23:23.707Z,100205.54
2023-05-21T05:25:51.222Z,100212.49
2023-05-21T05:28:18.696Z,100217.52
2023-05-21T05:30:45.780Z,100210.25
2023-05-21T05:33:23.236Z,100208.24
2023-05-21T05:35:52.671Z,100214.77
2023-05-21T05:38:19.781Z,100216.82
2023-05-21T05:40:47.064Z,100206.48
2023-05-21T05:43:21.287Z,100205.46
2023-05-21T05:45:49.093Z,100203.88
2023-05-21T05:48:21.278Z,100199.22
2023-05-21T05:50:53.946Z,100203.09
2023-05-21T05:53:20.852Z,100194.38
2023-05-21T05:55:50.062Z,100193.03
2023-05-21T05:58:17.052Z,100186.39
2023-05-21T06:00:53.606Z,100188.85
2023-05-21T06:03:20.570Z,100184.20
2023-05-21T06:05:48.117Z,100171.84
2023-05-21T06:08:15.987Z,100170.61
2023-05-21T06:10:42.657Z,100166.98
2023-05-21T06:13:12.266Z,100160.80
2023-05-21T06:15:42.405Z,100161.45
2023-05-21T06:18:09.471Z,100152.59
2023-05-21T06:20:36.488Z,100158.94
2023-05-21T06:26:13.050Z,100150.31
2023-05-21T06:28:44.268Z,100140.65
2023-05-21T06:31:13.634Z,100137.41
2023-05-21T06:33:42.387Z,100135.65
2023-05-21T06:36:09.287Z,100129.73
2023-05-21T06:38:37.784Z,100133.18
2023-05-21T06:44:11.033Z,100134.22
2023-05-21T06:47:02.969Z,100135.73
2023-05-21T06:57:39.248Z,100126.63
2023-05-21T07:00:15.503Z,100123.57
2023-05-21T07:03:03.087Z,100118.98
2023-05-21T07:05:36.822Z,100118.10
2023-05-21T07:37:00.837Z,100089.48
2023-05-21T07:39:27.719Z,100090.47
2023-05-21T07:41:59.852Z,100088.40
2023-05-21T07:44:26.813Z,100088.08
2023-05-21T07:46:53.417Z,100089.86
2023-05-21T07:49:22.303Z,100091.36
2023-05-21T07:51:52.641Z,100075.36
2023-05-21T07:54:25.036Z,100073.31
2023-05-21T07:56:57.492Z,100071.36
2023-05-21T07:59:44.991Z,100073.70
2023-05-21T08:02:13.947Z,100074.52
2023-05-21T08:04:41.859Z,100075.48
2023-05-21T08:07:10.047Z,100074.89
2023-05-21T08:09:37.125Z,100077.48
2023-05-21T08:12:09.163Z,100076.14
2023-05-21T08:14:35.886Z,100072.77
2023-05-21T08:17:02.396Z,100067.48
2023-05-21T08:19:31.758Z,100062.70
2023-05-21T08:22:01.046Z,100068.70
2023-05-21T08:24:33.266Z,100063.86
2023-05-21T08:27:02.611Z,100063.20
2023-05-21T08:29:34.548Z,100062.94
2023-05-21T08:32:01.419Z,100064.52
2023-05-21T08:34:28.471Z,100059.53
2023-05-21T08:37:10.800Z,100058.08
2023-05-21T08:39:57.727Z,100055.66
2023-05-21T08:42:36.970Z,100052.05
2023-05-21T08:45:08.656Z,100045.82
2023-05-21T08:47:43.570Z,100047.70
2023-05-21T08:50:19.907Z,100048.72
2023-05-21T08:52:46.842Z,100048.92
2023-05-21T08:55:13.885Z,100048.42
2023-05-21T08:57:45.222Z,100050.95
2023-05-21T09:00:20.092Z,100049.09
2023-05-21T09:02:46.935Z,100049.82
2023-05-21T09:05:15.310Z,100045.84
2023-05-21T09:07:54.298Z,100045.48
2023-05-21T09:10:40.344Z,100042.16
2023-05-21T09:13:09.191Z,100039.35
2023-05-21T09:15:36.711Z,100039.20
2023-05-21T09:18:03.658Z,100039.68
2023-05-21T09:20:41.078Z,100045.30
2023-05-21T09:23:15.808Z,100044.48
2023-05-21T09:25:48.799Z,100038.58
2023-05-21T09:28:24.348Z,100031.84
2023-05-21T09:30:54.196Z,100030.03
2023-05-21T09:33:28.780Z,100029.61
2023-05-21T09:35:58.193Z,100033.37
2023-05-21T09:38:26.428Z,100028.00
2023-05-21T09:40:56.465Z,100029.52
2023-05-21T09:43:23.111Z,100025.14
2023-05-21T09:45:55.167Z,100025.85
2023-05-21T10:15:20.101Z,100008.19
2023-05-21T10:17:50.943Z,100011.40
2023-05-21T10:20:18.287Z,100004.09
2023-05-21T10:22:45.666Z,100005.15
2023-05-21T10:25:15.872Z,100003.36
2023-05-21T10:27:48.528Z,100003.40
2023-05-21T10:30:17.548Z,99999.83
2023-05-21T10:32:49.981Z,100000.50
2023-05-21T10:35:22.371Z,100001.85
2023-05-21T10:37:52.661Z,100002.00
2023-05-21T10:40:21.774Z,100004.64
2023-05-21T10:43:06.811Z,100001.70
2023-05-21T10:45:55.410Z,99998.98
2023-05-21T10:48:42.585Z,99992.64
2023-05-21T10:51:20.496Z,99994.33
2023-05-21T10:54:45.941Z,99992.53
2023-05-21T10:57:30.865Z,99992.94
2023-05-21T10:59:57.814Z,99986.45
2023-05-21T11:02:26.373Z,99986.67
2023-05-21T11:05:00.765Z,99986.67
2023-05-21T11:07:56.004Z,99979.80
2023-05-21T11:10:44.822Z,99981.96
2023-05-21T11:13:15.669Z,99974.31
2023-05-21T11:15:57.334Z,99976.04
2023-05-21T11:18:48.846Z,99978.70
2023-05-21T11:21:20.358Z,99976.78
2023-05-21T11:23:53.956Z,99978.37
2023-05-21T11:26:25.736Z,99981.30
2023-05-21T11:29:10.568Z,99982.71
2023-05-21T11:31:40.177Z,99981.29
2023-05-21T11:34:29.331Z,99975.75
2023-05-21T11:37:14.856Z,99978.31
2023-05-21T11:39:41.865Z,99979.69
2023-05-21T11:42:08.454Z,99980.60
2023-05-21T11:44:39.309Z,99980.07
2023-05-21T11:47:06.793Z,99975.67
2023-05-21T11:49:36.362Z,99975.66
2023-05-21T11:52:07.552Z,99971.02
2023-05-21T11:54:39.851Z,99974.54
2023-05-21T11:57:07.235Z,99968.73
2023-05-21T11:59:36.832Z,99971.52
2023-05-21T12:02:04.276Z,99970.08
2023-05-21T12:04:38.111Z,99971.90
2023-05-21T12:07:09.028Z,99967.19
2023-05-21T12:09:42.738Z,99968.00
2023-05-21T12:12:15.517Z,99966.63
2023-05-21T12:14:48.708Z,99966.05
2023-05-21T12:17:17.000Z,99960.61
2023-05-21T12:19:48.769Z,99964.57
2023-05-21T12:22:17.792Z,99962.65
2023-05-21T12:24:46.025Z,99959.38
2023-05-21T12:27:13.053Z,99958.09
2023-05-21T12:29:43.934Z,99957.11
2023-05-21T12:32:14.823Z,99950.98
2023-05-21T13:40:39.281Z,99936.33
2023-05-21T13:43:10.976Z,99932.95
2023-05-21T13:45:38.231Z,99930.93
2023-05-21T13:48:05.782Z,99926.98
2023-05-21T13:50:32.527Z,99931.33
2023-05-21T13:53:01.360Z,99930.62
2023-05-21T13:55:27.971Z,99931.64
2023-05-21T13:57:54.730Z,99925.77
2023-05-21T14:00:21.544Z,99921.59
2023-05-21T14:02:49.544Z,99926.99
2023-05-21T14:05:18.851Z,99923.80
2023-05-21T14:07:47.662Z,99924.82
2023-05-21T14:10:14.375Z,99923.38
2023-05-21T14:12:47.912Z,99930.33
2023-05-21T14:15:16.852Z,99924.59
2023-05-21T14:17:50.728Z,99925.24
2023-05-21T14:20:17.814Z,99929.02
2023-05-21T14:22:44.638Z,99926.85
2023-05-21T14:25:13.048Z,99924.42
2023-05-21T14:27:42.288Z,99924.90
2023-05-21T14:30:11.757Z,99921.79
2023-05-21T14:32:38.180Z,99927.42
2023-05-21T14:35:07.554Z,99926.13
2023-05-21T14:37:36.427Z,99917.56
2023-05-21T14:40:04.883Z,99920.55
2023-05-21T14:42:32.097Z,99919.73
2023-05-21T14:45:17.657Z,99910.91
2023-05-21T14:47:47.055Z,99910.48
2023-05-21T14:50:14.692Z,99909.91
2023-05-21T14:52:42.628Z,99910.23
2023-05-21T14:55:11.759Z,99907.61
2023-05-21T14:57:40.931Z,99906.71
2023-05-21T15:00:08.000Z,99910.28
2023-05-21T15:02:34.944Z,99910.23
2023-05-21T15:05:01.881Z,99907.93
2023-05-21T15:07:33.457Z,99905.48
2023-05-21T15:10:02.444Z,99898.54
2023-05-21T15:12:31.135Z,99895.09
2023-05-21T15:14:57.770Z,99896.77
2023-05-21T15:17:25.681Z,99897.00
2023-05-21T15:19:57.129Z,99900.81
2023-05-21T15:22:23.541Z,99896.33
2023-05-21T15:24:50.056Z,99897.17
2023-05-21T15:27:19.042Z,99896.04
2023-05-21T15:29:49.967Z,99894.39
2023-05-21T15:32:20.339Z,99895.59
2023-05-21T15:34:47.756Z,99892.23
2023-05-21T15:37:14.866Z,99893.36
2023-05-21T15:39:49.827Z,99893.70
2023-05-21T15:42:16.391Z,99895.52
2023-05-21T15:44:45.328Z,99895.88
2023-05-21T15:47:12.681Z,99901.88
2023-05-21T15:49:39.332Z,99895.23
2023-05-21T15:52:06.606Z,99892.98
2023-05-21T15:54:35.604Z,99894.27
2023-05-21T15:57:04.354Z,99894.66
2023-05-21T15:59:30.797Z,99892.23
2023-05-21T16:01:57.528Z,99893.56
2023-05-21T16:04:32.418Z,99901.77
2023-05-21T16:06:58.953Z,99895.41
2023-05-21T16:09:30.896Z,99894.19
2023-05-21T16:11:57.405Z,99896.25
2023-05-21T16:14:23.999Z,99895.67
2023-05-21T16:16:53.717Z,99893.48
2023-05-21T16:19:22.329Z,99893.02
2023-05-21T16:21:49.301Z,99894.30
2023-05-21T16:24:21.999Z,99896.79
2023-05-21T16:26:48.835Z,99895.48
2023-05-21T16:29:18.698Z,99894.48
2023-05-21T16:31:46.740Z,99899.06
2023-05-21T16:34:15.647Z,99897.02
2023-05-21T16:36:46.438Z,99897.49
2023-05-21T16:39:15.685Z,99895.70
2023-05-21T16:41:43.177Z,99892.42
2023-05-21T16:44:09.923Z,99890.90
2023-05-21T16:46:36.757Z,99888.67
2023-05-21T16:49:03.349Z,99885.85
2023-05-21T16:51:32.312Z,99889.58
2023-05-21T16:53:58.744Z,99892.66
2023-05-21T16:56:26.849Z,99897.13
2023-05-21T16:58:53.314Z,99899.44
2023-05-21T17:01:20.188Z,99899.89
2023-05-21T17:03:49.147Z,99902.11
2023-05-21T17:06:15.888Z,99902.48
2023-05-21T17:08:44.888Z,99904.83
2023-05-21T17:11:13.576Z,99907.85
2023-05-21T17:13:41.386Z,99909.06
2023-05-21T17:16:10.128Z,99906.24
2023-05-21T17:18:37.011Z,99909.39
2023-05-21T17:21:06.515Z,99909.87
2023-05-21T17:23:34.692Z,99911.65
2023-05-21T19:19:03.579Z,99973.64
2023-05-21T19:21:32.574Z,99971.77
2023-05-21T19:24:20.428Z,99974.55
2023-05-21T19:26:47.986Z,99975.80
2023-05-21T19:29:16.053Z,99976.23
2023-05-21T19:31:43.201Z,99980.80
2023-05-21T19:34:10.530Z,99981.02
2023-05-21T19:36:51.647Z,99981.32
2023-05-21T19:39:20.596Z,99980.20
2023-05-21T19:42:10.476Z,99977.73
2023-05-21T19:44:44.318Z,99982.34
2023-05-21T19:48:48.662Z,99981.96
